sensor_id;sensor_type;location;lat;lon;timestamp;P1;durP1;ratioP1;P2;durP2;ratioP2
53253;SDS011;39148;53.332;6.922;2023-03-03T00:01:36;11.27;;;8.27;;
53253;SDS011;39148;53.332;6.922;2023-03-03T00:04:01;12.40;;;9.00;;
53253;SDS011;39148;53.332;6.922;2023-03-03T00:06:27;12.65;;;8.63;;
53253;SDS011;39148;53.332;6.922;2023-03-03T00:08:54;11.23;;;8.05;;
53253;SDS011;39148;53.332;6.922;2023-03-03T00:11:21;13.40;;;9.00;;
53253;SDS011;39148;53.332;6.922;2023-03-03T00:13:51;11.93;;;8.25;;
53253;SDS011;39148;53.332;6.922;2023-03-03T00:18:46;10.98;;;7.68;;
53253;SDS011;39148;53.332;6.922;2023-03-03T00:21:22;11.65;;;8.18;;
53253;SDS011;39148;53.332;6.922;2023-03-03T00:23:50;10.73;;;7.63;;
53253;SDS011;39148;53.332;6.922;2023-03-03T00:28:48;10.93;;;7.63;;
53253;SDS011;39148;53.332;6.922;2023-03-03T00:31:25;11.07;;;8.00;;
53253;SDS011;39148;53.332;6.922;2023-03-03T00:33:52;11.10;;;7.72;;
53253;SDS011;39148;53.332;6.922;2023-03-03T00:36:35;10.80;;;7.78;;
53253;SDS011;39148;53.332;6.922;2023-03-03T00:39:16;10.52;;;7.63;;
53253;SDS011;39148;53.332;6.922;2023-03-03T00:41:43;10.25;;;6.95;;
53253;SDS011;39148;53.332;6.922;2023-03-03T00:46:54;10.27;;;7.32;;
53253;SDS011;39148;53.332;6.922;2023-03-03T00:49:25;9.70;;;7.40;;
53253;SDS011;39148;53.332;6.922;2023-03-03T00:51:52;10.57;;;7.60;;
53253;SDS011;39148;53.332;6.922;2023-03-03T00:54:18;10.40;;;7.03;;
53253;SDS011;39148;53.332;6.922;2023-03-03T00:56:45;9.82;;;6.93;;
53253;SDS011;39148;53.332;6.922;2023-03-03T00:59:10;10.02;;;7.25;;
53253;SDS011;39148;53.332;6.922;2023-03-03T01:01:36;9.95;;;7.00;;
53253;SDS011;39148;53.332;6.922;2023-03-03T01:04:01;9.77;;;6.90;;
53253;SDS011;39148;53.332;6.922;2023-03-03T01:06:28;10.35;;;7.05;;
53253;SDS011;39148;53.332;6.922;2023-03-03T01:08:54;9.63;;;6.78;;
53253;SDS011;39148;53.332;6.922;2023-03-03T01:11:25;8.90;;;6.72;;
53253;SDS011;39148;53.332;6.922;2023-03-03T01:13:52;9.50;;;7.07;;
53253;SDS011;39148;53.332;6.922;2023-03-03T01:16:19;10.30;;;7.68;;
53253;SDS011;39148;53.332;6.922;2023-03-03T01:18:45;10.30;;;7.70;;
53253;SDS011;39148;53.332;6.922;2023-03-03T01:21:11;9.68;;;7.07;;
53253;SDS011;39148;53.332;6.922;2023-03-03T01:23:37;8.82;;;6.43;;
53253;SDS011;39148;53.332;6.922;2023-03-03T01:26:03;9.60;;;6.80;;
53253;SDS011;39148;53.332;6.922;2023-03-03T01:28:29;9.57;;;6.95;;
53253;SDS011;39148;53.332;6.922;2023-03-03T01:31:03;9.23;;;6.50;;
53253;SDS011;39148;53.332;6.922;2023-03-03T01:33:30;9.07;;;6.32;;
53253;SDS011;39148;53.332;6.922;2023-03-03T01:35:57;8.63;;;6.20;;
53253;SDS011;39148;53.332;6.922;2023-03-03T01:38:23;8.70;;;6.30;;
53253;SDS011;39148;53.332;6.922;2023-03-03T01:40:53;8.02;;;6.18;;
53253;SDS011;39148;53.332;6.922;2023-03-03T01:43:21;8.75;;;6.53;;
53253;SDS011;39148;53.332;6.922;2023-03-03T01:50:55;8.05;;;5.63;;
53253;SDS011;39148;53.332;6.922;2023-03-03T01:53:24;7.95;;;5.65;;
53253;SDS011;39148;53.332;6.922;2023-03-03T01:55:55;7.75;;;5.82;;
53253;SDS011;39148;53.332;6.922;2023-03-03T01:58:24;7.90;;;5.88;;
53253;SDS011;39148;53.332;6.922;2023-03-03T02:00:52;7.82;;;5.63;;
53253;SDS011;39148;53.332;6.922;2023-03-03T02:03:23;7.40;;;5.65;;
53253;SDS011;39148;53.332;6.922;2023-03-03T02:05:50;7.50;;;5.53;;
53253;SDS011;39148;53.332;6.922;2023-03-03T02:08:18;6.93;;;5.10;;
53253;SDS011;39148;53.332;6.922;2023-03-03T02:10:45;7.45;;;5.72;;
53253;SDS011;39148;53.332;6.922;2023-03-03T02:13:12;7.75;;;5.53;;
53253;SDS011;39148;53.332;6.922;2023-03-03T02:15:38;7.57;;;6.00;;
53253;SDS011;39148;53.332;6.922;2023-03-03T02:18:11;7.22;;;5.00;;
53253;SDS011;39148;53.332;6.922;2023-03-03T02:25:58;7.00;;;5.25;;
53253;SDS011;39148;53.332;6.922;2023-03-03T02:28:27;7.85;;;5.72;;
53253;SDS011;39148;53.332;6.922;2023-03-03T02:30:55;7.65;;;5.57;;
53253;SDS011;39148;53.332;6.922;2023-03-03T02:33:21;8.18;;;5.38;;
53253;SDS011;39148;53.332;6.922;2023-03-03T02:35:47;7.10;;;4.97;;
53253;SDS011;39148;53.332;6.922;2023-03-03T02:43:25;7.60;;;5.45;;
53253;SDS011;39148;53.332;6.922;2023-03-03T02:45:54;6.93;;;5.22;;
53253;SDS011;39148;53.332;6.922;2023-03-03T02:48:20;6.50;;;4.80;;
53253;SDS011;39148;53.332;6.922;2023-03-03T02:50:46;7.50;;;5.45;;
53253;SDS011;39148;53.332;6.922;2023-03-03T02:53:12;7.82;;;5.72;;
53253;SDS011;39148;53.332;6.922;2023-03-03T02:55:38;6.85;;;5.13;;
53253;SDS011;39148;53.332;6.922;2023-03-03T02:58:05;8.20;;;5.43;;
53253;SDS011;39148;53.332;6.922;2023-03-03T03:00:31;7.78;;;5.75;;
53253;SDS011;39148;53.332;6.922;2023-03-03T03:02:57;7.18;;;5.20;;
53253;SDS011;39148;53.332;6.922;2023-03-03T03:05:23;7.10;;;4.97;;
53253;SDS011;39148;53.332;6.922;2023-03-03T03:07:49;7.35;;;5.35;;
53253;SDS011;39148;53.332;6.922;2023-03-03T03:10:15;6.82;;;5.22;;
53253;SDS011;39148;53.332;6.922;2023-03-03T03:12:41;7.53;;;5.45;;
53253;SDS011;39148;53.332;6.922;2023-03-03T03:15:07;7.22;;;5.32;;
53253;SDS011;39148;53.332;6.922;2023-03-03T03:17:35;6.70;;;5.18;;
53253;SDS011;39148;53.332;6.922;2023-03-03T03:20:02;7.80;;;5.68;;
53253;SDS011;39148;53.332;6.922;2023-03-03T03:22:28;7.07;;;5.35;;
53253;SDS011;39148;53.332;6.922;2023-03-03T03:24:54;7.13;;;5.18;;
53253;SDS011;39148;53.332;6.922;2023-03-03T03:27:20;7.03;;;5.13;;
53253;SDS011;39148;53.332;6.922;2023-03-03T03:29:47;6.63;;;4.78;;
53253;SDS011;39148;53.332;6.922;2023-03-03T03:32:13;7.05;;;5.20;;
53253;SDS011;39148;53.332;6.922;2023-03-03T03:34:39;7.25;;;5.28;;
53253;SDS011;39148;53.332;6.922;2023-03-03T03:37:05;6.53;;;4.80;;
53253;SDS011;39148;53.332;6.922;2023-03-03T03:39:34;6.40;;;4.90;;
53253;SDS011;39148;53.332;6.922;2023-03-03T03:42:00;5.93;;;4.57;;
53253;SDS011;39148;53.332;6.922;2023-03-03T03:44:26;6.93;;;4.72;;
53253;SDS011;39148;53.332;6.922;2023-03-03T03:46:52;7.00;;;5.13;;
53253;SDS011;39148;53.332;6.922;2023-03-03T03:49:18;7.03;;;5.28;;
53253;SDS011;39148;53.332;6.922;2023-03-03T03:51:45;7.03;;;5.22;;
53253;SDS011;39148;53.332;6.922;2023-03-03T03:54:11;6.07;;;4.57;;
53253;SDS011;39148;53.332;6.922;2023-03-03T03:56:37;7.43;;;4.85;;
53253;SDS011;39148;53.332;6.922;2023-03-03T03:59:04;6.80;;;4.38;;
53253;SDS011;39148;53.332;6.922;2023-03-03T04:01:31;6.50;;;4.93;;
53253;SDS011;39148;53.332;6.922;2023-03-03T04:03:56;5.97;;;4.35;;
53253;SDS011;39148;53.332;6.922;2023-03-03T04:06:22;5.90;;;4.50;;
53253;SDS011;39148;53.332;6.922;2023-03-03T04:08:49;6.18;;;4.65;;
53253;SDS011;39148;53.332;6.922;2023-03-03T04:11:15;6.28;;;4.53;;
53253;SDS011;39148;53.332;6.922;2023-03-03T04:13:42;6.00;;;4.45;;
53253;SDS011;39148;53.332;6.922;2023-03-03T04:16:08;6.40;;;4.55;;
53253;SDS011;39148;53.332;6.922;2023-03-03T04:18:34;5.78;;;4.13;;
53253;SDS011;39148;53.332;6.922;2023-03-03T04:21:00;6.30;;;4.55;;
53253;SDS011;39148;53.332;6.922;2023-03-03T04:23:26;6.10;;;4.70;;
53253;SDS011;39148;53.332;6.922;2023-03-03T04:25:52;5.85;;;4.10;;
53253;SDS011;39148;53.332;6.922;2023-03-03T04:28:18;5.93;;;4.10;;
53253;SDS011;39148;53.332;6.922;2023-03-03T04:30:45;5.95;;;4.18;;
53253;SDS011;39148;53.332;6.922;2023-03-03T04:33:11;5.22;;;3.83;;
53253;SDS011;39148;53.332;6.922;2023-03-03T04:35:37;5.55;;;4.13;;
53253;SDS011;39148;53.332;6.922;2023-03-03T04:38:04;5.75;;;4.10;;
53253;SDS011;39148;53.332;6.922;2023-03-03T04:40:30;5.18;;;3.55;;
53253;SDS011;39148;53.332;6.922;2023-03-03T04:42:56;5.55;;;4.05;;
53253;SDS011;39148;53.332;6.922;2023-03-03T04:45:22;5.28;;;3.30;;
53253;SDS011;39148;53.332;6.922;2023-03-03T04:47:48;5.05;;;3.28;;
53253;SDS011;39148;53.332;6.922;2023-03-03T04:50:14;5.10;;;3.45;;
53253;SDS011;39148;53.332;6.922;2023-03-03T04:52:40;5.22;;;3.35;;
53253;SDS011;39148;53.332;6.922;2023-03-03T04:55:06;5.55;;;3.58;;
53253;SDS011;39148;53.332;6.922;2023-03-03T04:57:33;5.63;;;3.70;;
53253;SDS011;39148;53.332;6.922;2023-03-03T04:59:59;5.00;;;3.40;;
53253;SDS011;39148;53.332;6.922;2023-03-03T05:02:25;4.55;;;3.22;;
53253;SDS011;39148;53.332;6.922;2023-03-03T05:04:51;5.45;;;3.70;;
53253;SDS011;39148;53.332;6.922;2023-03-03T05:07:17;4.32;;;3.00;;
53253;SDS011;39148;53.332;6.922;2023-03-03T05:09:44;5.35;;;3.50;;
53253;SDS011;39148;53.332;6.922;2023-03-03T05:12:11;4.63;;;3.33;;
53253;SDS011;39148;53.332;6.922;2023-03-03T05:14:36;5.00;;;3.22;;
53253;SDS011;39148;53.332;6.922;2023-03-03T05:17:02;4.72;;;3.03;;
53253;SDS011;39148;53.332;6.922;2023-03-03T05:19:30;5.50;;;3.45;;
53253;SDS011;39148;53.332;6.922;2023-03-03T05:21:56;5.10;;;3.60;;
53253;SDS011;39148;53.332;6.922;2023-03-03T05:24:22;4.88;;;3.08;;
53253;SDS011;39148;53.332;6.922;2023-03-03T05:26:48;4.85;;;3.03;;
53253;SDS011;39148;53.332;6.922;2023-03-03T05:29:14;8.68;;;3.47;;
53253;SDS011;39148;53.332;6.922;2023-03-03T05:31:40;4.72;;;3.28;;
53253;SDS011;39148;53.332;6.922;2023-03-03T05:34:06;5.30;;;3.20;;
53253;SDS011;39148;53.332;6.922;2023-03-03T05:36:32;4.78;;;3.40;;
53253;SDS011;39148;53.332;6.922;2023-03-03T05:38:59;4.93;;;3.40;;
53253;SDS011;39148;53.332;6.922;2023-03-03T05:41:25;5.43;;;3.50;;
53253;SDS011;39148;53.332;6.922;2023-03-03T05:43:50;4.82;;;3.15;;
53253;SDS011;39148;53.332;6.922;2023-03-03T05:46:16;4.50;;;2.80;;
53253;SDS011;39148;53.332;6.922;2023-03-03T05:48:43;4.90;;;3.17;;
53253;SDS011;39148;53.332;6.922;2023-03-03T05:51:09;4.68;;;3.20;;
53253;SDS011;39148;53.332;6.922;2023-03-03T05:53:35;4.82;;;3.13;;
53253;SDS011;39148;53.332;6.922;2023-03-03T05:56:01;4.40;;;2.90;;
53253;SDS011;39148;53.332;6.922;2023-03-03T05:58:27;6.45;;;3.45;;
53253;SDS011;39148;53.332;6.922;2023-03-03T06:00:54;4.47;;;3.00;;
53253;SDS011;39148;53.332;6.922;2023-03-03T06:03:20;4.65;;;3.35;;
53253;SDS011;39148;53.332;6.922;2023-03-03T06:05:46;4.90;;;3.25;;
53253;SDS011;39148;53.332;6.922;2023-03-03T06:08:12;5.03;;;3.35;;
53253;SDS011;39148;53.332;6.922;2023-03-03T06:10:38;4.65;;;3.38;;
53253;SDS011;39148;53.332;6.922;2023-03-03T06:13:04;5.25;;;3.47;;
53253;SDS011;39148;53.332;6.922;2023-03-03T06:15:30;4.90;;;3.05;;
53253;SDS011;39148;53.332;6.922;2023-03-03T06:17:56;5.00;;;3.60;;
53253;SDS011;39148;53.332;6.922;2023-03-03T06:20:22;5.00;;;3.30;;
53253;SDS011;39148;53.332;6.922;2023-03-03T06:22:49;5.10;;;3.22;;
53253;SDS011;39148;53.332;6.922;2023-03-03T06:25:15;5.90;;;3.50;;
53253;SDS011;39148;53.332;6.922;2023-03-03T06:27:41;5.63;;;3.63;;
53253;SDS011;39148;53.332;6.922;2023-03-03T06:30:07;4.95;;;3.22;;
53253;SDS011;39148;53.332;6.922;2023-03-03T06:32:33;5.28;;;3.40;;
53253;SDS011;39148;53.332;6.922;2023-03-03T06:34:59;5.70;;;3.60;;
53253;SDS011;39148;53.332;6.922;2023-03-03T06:37:25;4.40;;;3.05;;
53253;SDS011;39148;53.332;6.922;2023-03-03T06:39:51;4.82;;;3.20;;
53253;SDS011;39148;53.332;6.922;2023-03-03T06:42:18;5.20;;;3.40;;
53253;SDS011;39148;53.332;6.922;2023-03-03T06:44:45;4.97;;;3.22;;
53253;SDS011;39148;53.332;6.922;2023-03-03T06:47:12;5.38;;;3.10;;
53253;SDS011;39148;53.332;6.922;2023-03-03T06:49:38;5.82;;;3.30;;
53253;SDS011;39148;53.332;6.922;2023-03-03T06:52:13;5.88;;;3.75;;
53253;SDS011;39148;53.332;6.922;2023-03-03T06:54:42;5.57;;;3.30;;
53253;SDS011;39148;53.332;6.922;2023-03-03T06:59:56;5.05;;;3.30;;
53253;SDS011;39148;53.332;6.922;2023-03-03T07:02:23;5.00;;;3.25;;
53253;SDS011;39148;53.332;6.922;2023-03-03T07:04:48;5.70;;;3.72;;
53253;SDS011;39148;53.332;6.922;2023-03-03T07:07:16;5.05;;;3.47;;
53253;SDS011;39148;53.332;6.922;2023-03-03T07:09:45;5.15;;;3.28;;
53253;SDS011;39148;53.332;6.922;2023-03-03T07:12:13;7.60;;;3.83;;
53253;SDS011;39148;53.332;6.922;2023-03-03T07:14:44;6.10;;;3.28;;
53253;SDS011;39148;53.332;6.922;2023-03-03T07:17:13;5.63;;;3.80;;
53253;SDS011;39148;53.332;6.922;2023-03-03T07:19:40;5.53;;;3.45;;
53253;SDS011;39148;53.332;6.922;2023-03-03T07:24:39;5.00;;;3.22;;
53253;SDS011;39148;53.332;6.922;2023-03-03T07:27:15;6.22;;;3.08;;
53253;SDS011;39148;53.332;6.922;2023-03-03T07:29:53;5.30;;;3.10;;
53253;SDS011;39148;53.332;6.922;2023-03-03T07:32:39;4.95;;;3.22;;
53253;SDS011;39148;53.332;6.922;2023-03-03T07:35:12;4.90;;;3.33;;
53253;SDS011;39148;53.332;6.922;2023-03-03T07:37:45;5.60;;;3.47;;
53253;SDS011;39148;53.332;6.922;2023-03-03T07:40:28;4.70;;;3.08;;
53253;SDS011;39148;53.332;6.922;2023-03-03T07:42:56;5.05;;;3.42;;
53253;SDS011;39148;53.332;6.922;2023-03-03T07:45:26;5.18;;;3.28;;
53253;SDS011;39148;53.332;6.922;2023-03-03T07:47:59;5.32;;;3.30;;
53253;SDS011;39148;53.332;6.922;2023-03-03T07:50:46;4.75;;;3.20;;
53253;SDS011;39148;53.332;6.922;2023-03-03T07:53:16;4.90;;;2.97;;
53253;SDS011;39148;53.332;6.922;2023-03-03T07:55:44;4.85;;;2.67;;
53253;SDS011;39148;53.332;6.922;2023-03-03T08:03:08;4.85;;;2.58;;
53253;SDS011;39148;53.332;6.922;2023-03-03T08:05:37;4.55;;;2.42;;
53253;SDS011;39148;53.332;6.922;2023-03-03T08:10:35;5.68;;;2.80;;
53253;SDS011;39148;53.332;6.922;2023-03-03T08:13:08;5.30;;;3.05;;
53253;SDS011;39148;53.332;6.922;2023-03-03T08:15:36;5.40;;;2.90;;
53253;SDS011;39148;53.332;6.922;2023-03-03T08:18:07;4.88;;;3.03;;
53253;SDS011;39148;53.332;6.922;2023-03-03T08:20:42;4.97;;;2.80;;
53253;SDS011;39148;53.332;6.922;2023-03-03T08:23:10;5.53;;;2.83;;
53253;SDS011;39148;53.332;6.922;2023-03-03T08:25:36;5.25;;;2.83;;
53253;SDS011;39148;53.332;6.922;2023-03-03T08:28:02;4.50;;;3.00;;
53253;SDS011;39148;53.332;6.922;2023-03-03T08:30:29;4.82;;;3.00;;
53253;SDS011;39148;53.332;6.922;2023-03-03T08:32:56;5.85;;;2.67;;
53253;SDS011;39148;53.332;6.922;2023-03-03T08:35:22;6.32;;;3.25;;
53253;SDS011;39148;53.332;6.922;2023-03-03T08:37:48;4.88;;;2.63;;
53253;SDS011;39148;53.332;6.922;2023-03-03T08:40:15;4.75;;;2.50;;
53253;SDS011;39148;53.332;6.922;2023-03-03T08:42:41;6.10;;;2.85;;
53253;SDS011;39148;53.332;6.922;2023-03-03T08:45:07;5.85;;;3.13;;
53253;SDS011;39148;53.332;6.922;2023-03-03T08:47:33;5.22;;;3.00;;
53253;SDS011;39148;53.332;6.922;2023-03-03T08:49:59;5.13;;;2.72;;
53253;SDS011;39148;53.332;6.922;2023-03-03T08:52:24;5.18;;;2.80;;
53253;SDS011;39148;53.332;6.922;2023-03-03T08:54:51;5.65;;;2.60;;
53253;SDS011;39148;53.332;6.922;2023-03-03T08:57:17;5.38;;;2.83;;
53253;SDS011;39148;53.332;6.922;2023-03-03T08:59:43;4.80;;;2.75;;
53253;SDS011;39148;53.332;6.922;2023-03-03T09:02:11;5.07;;;2.95;;
53253;SDS011;39148;53.332;6.922;2023-03-03T09:04:38;4.93;;;2.65;;
53253;SDS011;39148;53.332;6.922;2023-03-03T09:07:04;5.88;;;2.92;;
53253;SDS011;39148;53.332;6.922;2023-03-03T09:09:30;5.60;;;3.10;;
53253;SDS011;39148;53.332;6.922;2023-03-03T09:11:57;7.75;;;2.70;;
53253;SDS011;39148;53.332;6.922;2023-03-03T09:14:24;4.40;;;2.63;;
53253;SDS011;39148;53.332;6.922;2023-03-03T09:16:51;5.38;;;2.65;;
53253;SDS011;39148;53.332;6.922;2023-03-03T09:19:20;5.95;;;3.25;;
53253;SDS011;39148;53.332;6.922;2023-03-03T09:21:47;4.90;;;2.80;;
53253;SDS011;39148;53.332;6.922;2023-03-03T09:24:23;5.10;;;2.88;;
53253;SDS011;39148;53.332;6.922;2023-03-03T09:26:49;5.28;;;2.95;;
53253;SDS011;39148;53.332;6.922;2023-03-03T09:31:56;7.18;;;3.20;;
53253;SDS011;39148;53.332;6.922;2023-03-03T09:34:26;5.88;;;2.85;;
53253;SDS011;39148;53.332;6.922;2023-03-03T09:36:54;4.88;;;2.75;;
53253;SDS011;39148;53.332;6.922;2023-03-03T09:39:21;4.63;;;2.67;;
53253;SDS011;39148;53.332;6.922;2023-03-03T10:15:42;4.88;;;2.25;;
53253;SDS011;39148;53.332;6.922;2023-03-03T10:18:29;5.05;;;2.10;;
53253;SDS011;39148;53.332;6.922;2023-03-03T10:29:14;3.83;;;1.85;;
53253;SDS011;39148;53.332;6.922;2023-03-03T10:47:41;3.42;;;1.38;;
53253;SDS011;39148;53.332;6.922;2023-03-03T10:52:46;3.97;;;1.50;;
53253;SDS011;39148;53.332;6.922;2023-03-03T11:00:34;3.10;;;1.13;;
53253;SDS011;39148;53.332;6.922;2023-03-03T11:03:21;3.72;;;1.25;;
53253;SDS011;39148;53.332;6.922;2023-03-03T11:06:24;2.55;;;1.10;;
53253;SDS011;39148;53.332;6.922;2023-03-03T11:11:43;3.13;;;1.10;;
53253;SDS011;39148;53.332;6.922;2023-03-03T11:14:12;3.00;;;0.88;;
53253;SDS011;39148;53.332;6.922;2023-03-03T11:16:49;2.83;;;0.80;;
53253;SDS011;39148;53.332;6.922;2023-03-03T11:19:43;2.85;;;0.70;;
53253;SDS011;39148;53.332;6.922;2023-03-03T11:40:47;3.83;;;1.27;;
53253;SDS011;39148;53.332;6.922;2023-03-03T11:46:18;3.22;;;0.73;;
53253;SDS011;39148;53.332;6.922;2023-03-03T11:51:26;3.45;;;0.73;;
53253;SDS011;39148;53.332;6.922;2023-03-03T11:56:27;3.38;;;0.90;;
53253;SDS011;39148;53.332;6.922;2023-03-03T12:24:53;4.00;;;0.60;;
53253;SDS011;39148;53.332;6.922;2023-03-03T12:30:32;4.95;;;0.70;;
53253;SDS011;39148;53.332;6.922;2023-03-03T12:35:41;4.85;;;0.70;;
53253;SDS011;39148;53.332;6.922;2023-03-03T12:40:53;4.47;;;0.50;;
53253;SDS011;39148;53.332;6.922;2023-03-03T12:48:56;4.55;;;0.70;;
53253;SDS011;39148;53.332;6.922;2023-03-03T12:59:13;7.88;;;0.70;;
53253;SDS011;39148;53.332;6.922;2023-03-03T13:01:57;5.47;;;0.70;;
53253;SDS011;39148;53.332;6.922;2023-03-03T13:04:36;5.00;;;0.68;;
53253;SDS011;39148;53.332;6.922;2023-03-03T13:07:05;7.50;;;0.70;;
53253;SDS011;39148;53.332;6.922;2023-03-03T13:20:01;8.40;;;1.10;;
53253;SDS011;39148;53.332;6.922;2023-03-03T13:22:45;4.60;;;0.60;;
53253;SDS011;39148;53.332;6.922;2023-03-03T13:27:42;8.70;;;1.20;;
53253;SDS011;39148;53.332;6.922;2023-03-03T13:30:22;9.88;;;1.40;;
53253;SDS011;39148;53.332;6.922;2023-03-03T13:32:54;8.30;;;1.05;;
53253;SDS011;39148;53.332;6.922;2023-03-03T13:37:56;6.43;;;0.95;;
53253;SDS011;39148;53.332;6.922;2023-03-03T13:40:25;8.18;;;1.20;;
53253;SDS011;39148;53.332;6.922;2023-03-03T13:50:57;10.52;;;1.30;;
53253;SDS011;39148;53.332;6.922;2023-03-03T14:06:59;8.45;;;2.10;;
53253;SDS011;39148;53.332;6.922;2023-03-03T14:09:35;7.07;;;1.60;;
53253;SDS011;39148;53.332;6.922;2023-03-03T14:12:13;8.20;;;1.70;;
53253;SDS011;39148;53.332;6.922;2023-03-03T14:15:03;9.35;;;1.60;;
53253;SDS011;39148;53.332;6.922;2023-03-03T14:20:27;11.90;;;1.80;;
53253;SDS011;39148;53.332;6.922;2023-03-03T14:22:55;12.20;;;1.52;;
53253;SDS011;39148;53.332;6.922;2023-03-03T14:25:51;11.23;;;1.92;;
53253;SDS011;39148;53.332;6.922;2023-03-03T14:28:36;12.88;;;1.80;;
53253;SDS011;39148;53.332;6.922;2023-03-03T14:31:37;9.27;;;1.35;;
53253;SDS011;39148;53.332;6.922;2023-03-03T14:36:35;11.70;;;1.58;;
53253;SDS011;39148;53.332;6.922;2023-03-03T14:39:13;12.13;;;2.00;;
53253;SDS011;39148;53.332;6.922;2023-03-03T14:41:49;13.20;;;1.77;;
53253;SDS011;39148;53.332;6.922;2023-03-03T14:44:25;10.70;;;1.45;;
53253;SDS011;39148;53.332;6.922;2023-03-03T14:49:46;9.52;;;1.35;;
53253;SDS011;39148;53.332;6.922;2023-03-03T14:54:44;15.15;;;2.55;;
53253;SDS011;39148;53.332;6.922;2023-03-03T15:02:31;13.30;;;2.35;;
53253;SDS011;39148;53.332;6.922;2023-03-03T15:07:49;11.82;;;1.70;;
53253;SDS011;39148;53.332;6.922;2023-03-03T15:10:28;13.48;;;2.00;;
53253;SDS011;39148;53.332;6.922;2023-03-03T15:12:54;11.07;;;1.65;;
53253;SDS011;39148;53.332;6.922;2023-03-03T15:15:21;15.82;;;2.92;;
53253;SDS011;39148;53.332;6.922;2023-03-03T15:20:17;14.80;;;1.90;;
53253;SDS011;39148;53.332;6.922;2023-03-03T15:22:48;11.10;;;1.90;;
53253;SDS011;39148;53.332;6.922;2023-03-03T15:30:46;9.95;;;1.60;;
53253;SDS011;39148;53.332;6.922;2023-03-03T15:33:31;14.70;;;2.75;;
53253;SDS011;39148;53.332;6.922;2023-03-03T15:44:20;12.23;;;2.22;;
53253;SDS011;39148;53.332;6.922;2023-03-03T15:47:08;11.95;;;2.05;;
53253;SDS011;39148;53.332;6.922;2023-03-03T15:52:19;11.20;;;1.80;;
53253;SDS011;39148;53.332;6.922;2023-03-03T15:54:57;16.38;;;2.10;;
53253;SDS011;39148;53.332;6.922;2023-03-03T16:00:33;14.98;;;1.67;;
53253;SDS011;39148;53.332;6.922;2023-03-03T16:03:23;14.75;;;1.95;;
53253;SDS011;39148;53.332;6.922;2023-03-03T16:06:00;11.75;;;1.85;;
53253;SDS011;39148;53.332;6.922;2023-03-03T16:08:51;12.18;;;2.00;;
53253;SDS011;39148;53.332;6.922;2023-03-03T16:19:21;13.30;;;2.20;;
53253;SDS011;39148;53.332;6.922;2023-03-03T16:27:34;11.52;;;2.00;;
53253;SDS011;39148;53.332;6.922;2023-03-03T16:38:37;13.95;;;1.90;;
53253;SDS011;39148;53.332;6.922;2023-03-03T16:41:22;11.10;;;1.83;;
53253;SDS011;39148;53.332;6.922;2023-03-03T16:51:40;13.35;;;1.63;;
53253;SDS011;39148;53.332;6.922;2023-03-03T16:59:44;11.20;;;2.25;;
53253;SDS011;39148;53.332;6.922;2023-03-03T17:05:26;12.02;;;1.77;;
53253;SDS011;39148;53.332;6.922;2023-03-03T17:10:55;12.57;;;1.70;;
53253;SDS011;39148;53.332;6.922;2023-03-03T17:13:23;10.85;;;1.80;;
53253;SDS011;39148;53.332;6.922;2023-03-03T17:16:04;12.35;;;2.00;;
53253;SDS011;39148;53.332;6.922;2023-03-03T17:21:06;16.23;;;2.53;;
53253;SDS011;39148;53.332;6.922;2023-03-03T18:03:46;15.30;;;2.17;;
53253;SDS011;39148;53.332;6.922;2023-03-03T18:09:20;12.60;;;1.80;;
53253;SDS011;39148;53.332;6.922;2023-03-03T18:11:55;14.10;;;2.30;;
53253;SDS011;39148;53.332;6.922;2023-03-03T18:17:21;13.15;;;2.13;;
53253;SDS011;39148;53.332;6.922;2023-03-03T18:25:09;14.07;;;2.25;;
53253;SDS011;39148;53.332;6.922;2023-03-03T18:27:36;18.17;;;2.30;;
53253;SDS011;39148;53.332;6.922;2023-03-03T18:30:12;12.77;;;2.33;;
53253;SDS011;39148;53.332;6.922;2023-03-03T18:32:47;8.98;;;2.10;;
53253;SDS011;39148;53.332;6.922;2023-03-03T18:35:38;12.00;;;2.17;;
53253;SDS011;39148;53.332;6.922;2023-03-03T18:46:02;11.57;;;2.03;;
53253;SDS011;39148;53.332;6.922;2023-03-03T18:48:47;15.35;;;2.35;;
53253;SDS011;39148;53.332;6.922;2023-03-03T19:04:41;12.40;;;2.22;;
53253;SDS011;39148;53.332;6.922;2023-03-03T19:09:59;15.20;;;2.85;;
53253;SDS011;39148;53.332;6.922;2023-03-03T19:18:00;14.00;;;2.05;;
53253;SDS011;39148;53.332;6.922;2023-03-03T19:20:39;16.20;;;2.20;;
53253;SDS011;39148;53.332;6.922;2023-03-03T19:23:11;12.02;;;2.28;;
53253;SDS011;39148;53.332;6.922;2023-03-03T19:25:40;13.48;;;1.88;;
53253;SDS011;39148;53.332;6.922;2023-03-03T19:44:10;11.15;;;1.95;;
53253;SDS011;39148;53.332;6.922;2023-03-03T19:46:52;10.45;;;1.80;;
53253;SDS011;39148;53.332;6.922;2023-03-03T19:52:36;12.27;;;1.98;;
53253;SDS011;39148;53.332;6.922;2023-03-03T20:00:44;13.82;;;2.53;;
53253;SDS011;39148;53.332;6.922;2023-03-03T20:08:45;10.43;;;1.58;;
53253;SDS011;39148;53.332;6.922;2023-03-03T20:11:19;12.25;;;1.92;;
53253;SDS011;39148;53.332;6.922;2023-03-03T20:13:54;10.35;;;1.48;;
53253;SDS011;39148;53.332;6.922;2023-03-03T20:19:14;12.50;;;2.35;;
53253;SDS011;39148;53.332;6.922;2023-03-03T20:21:52;8.13;;;1.67;;
53253;SDS011;39148;53.332;6.922;2023-03-03T20:37:01;9.77;;;1.50;;
53253;SDS011;39148;53.332;6.922;2023-03-03T20:39:34;9.80;;;1.63;;
53253;SDS011;39148;53.332;6.922;2023-03-03T20:42:05;9.35;;;1.40;;
53253;SDS011;39148;53.332;6.922;2023-03-03T20:44:38;10.45;;;1.65;;
53253;SDS011;39148;53.332;6.922;2023-03-03T20:54:43;10.65;;;1.63;;
53253;SDS011;39148;53.332;6.922;2023-03-03T20:57:26;10.25;;;1.40;;
53253;SDS011;39148;53.332;6.922;2023-03-03T21:05:17;11.75;;;1.67;;
53253;SDS011;39148;53.332;6.922;2023-03-03T21:07:54;8.25;;;1.75;;
53253;SDS011;39148;53.332;6.922;2023-03-03T21:10:32;10.70;;;1.65;;
53253;SDS011;39148;53.332;6.922;2023-03-03T21:14:00;9.13;;;1.65;;
53253;SDS011;39148;53.332;6.922;2023-03-03T21:15:59;9.38;;;1.20;;
53253;SDS011;39148;53.332;6.922;2023-03-03T21:18:26;9.45;;;1.65;;
53253;SDS011;39148;53.332;6.922;2023-03-03T21:20:52;14.10;;;2.33;;
53253;SDS011;39148;53.332;6.922;2023-03-03T21:23:18;10.05;;;1.40;;
53253;SDS011;39148;53.332;6.922;2023-03-03T21:25:46;9.75;;;1.38;;
53253;SDS011;39148;53.332;6.922;2023-03-03T21:28:13;10.15;;;1.60;;
53253;SDS011;39148;53.332;6.922;2023-03-03T21:30:58;9.20;;;1.58;;
53253;SDS011;39148;53.332;6.922;2023-03-03T21:36:24;7.18;;;1.02;;
53253;SDS011;39148;53.332;6.922;2023-03-03T21:39:21;8.95;;;1.40;;
53253;SDS011;39148;53.332;6.922;2023-03-03T21:41:49;8.20;;;1.15;;
53253;SDS011;39148;53.332;6.922;2023-03-03T21:47:02;9.25;;;1.25;;
53253;SDS011;39148;53.332;6.922;2023-03-03T21:49:28;10.20;;;1.60;;
53253;SDS011;39148;53.332;6.922;2023-03-03T21:51:54;11.30;;;1.70;;
53253;SDS011;39148;53.332;6.922;2023-03-03T21:54:21;10.85;;;1.42;;
53253;SDS011;39148;53.332;6.922;2023-03-03T21:56:47;10.23;;;1.42;;
53253;SDS011;39148;53.332;6.922;2023-03-03T21:59:14;9.98;;;2.10;;
53253;SDS011;39148;53.332;6.922;2023-03-03T22:01:40;7.93;;;1.27;;
53253;SDS011;39148;53.332;6.922;2023-03-03T22:04:06;7.75;;;1.23;;
53253;SDS011;39148;53.332;6.922;2023-03-03T22:06:32;8.73;;;1.23;;
53253;SDS011;39148;53.332;6.922;2023-03-03T22:08:57;9.63;;;1.40;;
53253;SDS011;39148;53.332;6.922;2023-03-03T22:11:23;9.70;;;1.40;;
53253;SDS011;39148;53.332;6.922;2023-03-03T22:13:49;7.85;;;1.65;;
53253;SDS011;39148;53.332;6.922;2023-03-03T22:16:14;7.32;;;1.25;;
53253;SDS011;39148;53.332;6.922;2023-03-03T22:18:40;10.73;;;1.45;;
53253;SDS011;39148;53.332;6.922;2023-03-03T22:21:06;9.93;;;1.55;;
53253;SDS011;39148;53.332;6.922;2023-03-03T22:23:34;9.65;;;1.30;;
53253;SDS011;39148;53.332;6.922;2023-03-03T22:26:00;9.40;;;1.85;;
53253;SDS011;39148;53.332;6.922;2023-03-03T22:28:26;9.35;;;1.48;;